Time;durP1;ratioP1;P1;durP2;ratioP2;P2;SDS_P1;SDS_P2;PMS_P1;PMS_P2;Temp;Humidity;BMP_temperature;BMP_pressure;BME280_temperature;BME280_humidity;BME280_pressure;Samples;Min_cycle;Max_cycle;Signal;HPM_P1;HPM_P2
2022/04/10 00:01:13;;;;;;;2.43;2.07;;;3.90;99.90;;;;;;5046139;28;20197;-65
2022/04/10 00:03:39;;;;;;;2.90;2.17;;;3.90;99.90;;;;;;5048661;28;20187;-63
2022/04/10 00:06:05;;;;;;;3.33;2.00;;;3.90;99.90;;;;;;5048595;28;20236;-63
2022/04/10 00:08:30;;;;;;;2.53;1.80;;;3.90;99.90;;;;;;5049434;28;20275;-65
2022/04/10 00:10:56;;;;;;;4.70;1.70;;;3.80;99.90;;;;;;5051059;28;20286;-65
2022/04/10 00:13:21;;;;;;;3.23;2.03;;;3.90;99.90;;;;;;5051151;28;20567;-65
2022/04/10 00:15:47;;;;;;;4.57;1.70;;;3.80;99.90;;;;;;5047169;28;20654;-64
2022/04/10 00:18:12;;;;;;;6.40;2.27;;;3.70;99.90;;;;;;5046661;28;20191;-64
2022/04/10 00:20:38;;;;;;;4.87;2.53;;;3.80;99.90;;;;;;5046805;28;20221;-65
2022/04/10 00:23:04;;;;;;;4.00;2.00;;;3.80;99.90;;;;;;5050957;28;20185;-64
2022/04/10 00:25:29;;;;;;;4.97;1.87;;;3.70;99.90;;;;;;5047272;28;20207;-64
2022/04/10 00:27:55;;;;;;;5.57;2.43;;;3.70;99.90;;;;;;5049073;28;20178;-65
2022/04/10 00:30:20;;;;;;;9.70;2.73;;;3.60;99.90;;;;;;5048209;28;20253;-66
2022/04/10 00:32:46;;;;;;;4.30;2.37;;;3.60;99.90;;;;;;5052572;28;20266;-66
2022/04/10 00:35:12;;;;;;;4.60;2.87;;;3.60;99.90;;;;;;5048533;28;20358;-65
2022/04/10 00:37:39;;;;;;;6.30;2.40;;;3.60;99.90;;;;;;5061049;28;20216;-65
2022/04/10 00:40:06;;;;;;;5.70;2.23;;;3.60;99.90;;;;;;5055338;28;20238;-66
2022/04/10 00:42:34;;;;;;;4.20;3.00;;;3.60;99.90;;;;;;5049708;28;20273;-65
2022/04/10 00:44:59;;;;;;;6.67;2.43;;;3.60;99.90;;;;;;5047512;28;20202;-66
2022/04/10 00:47:25;;;;;;;4.97;2.70;;;3.60;99.90;;;;;;5053261;28;20187;-66
2022/04/10 00:49:51;;;;;;;6.53;3.20;;;3.70;99.90;;;;;;5050676;28;20241;-65
2022/04/10 00:52:18;;;;;;;4.17;3.77;;;3.70;99.90;;;;;;5050319;28;20256;-66
2022/04/10 00:54:44;;;;;;;3.07;2.87;;;3.60;99.90;;;;;;5055858;28;20214;-64
2022/04/10 00:57:10;;;;;;;7.50;3.40;;;3.60;99.90;;;;;;5057800;28;20453;-64
2022/04/10 00:59:36;;;;;;;3.73;2.63;;;3.60;99.90;;;;;;5052016;28;20211;-64
2022/04/10 01:02:02;;;;;;;6.67;3.60;;;3.60;99.90;;;;;;5051701;28;20288;-65
2022/04/10 01:04:27;;;;;;;3.87;3.20;;;3.60;99.90;;;;;;5060205;28;20250;-65
2022/04/10 01:06:54;;;;;;;4.87;3.47;;;3.50;99.90;;;;;;5058662;28;20185;-65
2022/04/10 01:09:20;;;;;;;4.73;2.97;;;3.50;99.90;;;;;;5053631;28;20271;-64
2022/04/10 01:11:46;;;;;;;3.07;2.77;;;3.50;99.90;;;;;;5054260;28;20264;-65
2022/04/10 01:14:13;;;;;;;4.10;2.80;;;3.50;99.90;;;;;;5050616;28;20292;-65
2022/04/10 01:16:39;;;;;;;3.90;2.90;;;3.50;99.90;;;;;;5048731;28;20663;-65
2022/04/10 01:19:05;;;;;;;5.63;2.77;;;3.50;99.90;;;;;;5046629;28;20211;-65
2022/04/10 01:21:44;;;;;;;5.87;2.63;;;3.50;99.90;;;;;;5057126;28;20200;-65
2022/04/10 01:24:13;;;;;;;5.07;3.93;;;3.50;99.90;;;;;;5049708;28;20289;-66
2022/04/10 01:26:39;;;;;;;5.40;3.33;;;3.50;99.90;;;;;;5056149;28;20215;-65
2022/04/10 01:29:07;;;;;;;8.23;2.60;;;3.50;99.90;;;;;;5048303;28;20202;-64
2022/04/10 01:31:35;;;;;;;5.50;3.83;;;3.50;99.90;;;;;;5056079;28;20205;-64
2022/04/10 01:34:07;;;;;;;4.17;2.50;;;3.40;99.90;;;;;;5060111;28;20609;-66
2022/04/10 01:36:34;;;;;;;7.10;3.20;;;3.40;99.90;;;;;;5058967;28;20560;-66
2022/04/10 01:39:02;;;;;;;5.80;3.13;;;3.30;99.90;;;;;;5047445;28;20221;-65
2022/04/10 01:41:28;;;;;;;6.27;3.00;;;3.30;99.90;;;;;;5062664;28;20190;-65
2022/04/10 01:43:56;;;;;;;6.03;2.83;;;3.30;99.90;;;;;;5056026;28;20198;-64
2022/04/10 01:46:25;;;;;;;4.87;2.50;;;3.30;99.90;;;;;;5055196;28;20211;-65
2022/04/10 01:48:50;;;;;;;4.50;2.90;;;3.30;99.90;;;;;;5063332;28;20201;-66
2022/04/10 01:51:16;;;;;;;3.47;2.57;;;3.30;99.90;;;;;;5054963;28;20205;-66
2022/04/10 01:53:42;;;;;;;5.83;3.07;;;3.30;99.90;;;;;;5056924;28;20182;-64
2022/04/10 01:56:08;;;;;;;4.30;2.73;;;3.20;99.90;;;;;;5046737;28;20280;-65
2022/04/10 01:58:36;;;;;;;8.17;3.30;;;3.20;99.90;;;;;;5049623;28;20194;-74
2022/04/10 02:01:07;;;;;;;7.27;3.00;;;3.20;99.90;;;;;;5063646;28;20679;-64
2022/04/10 02:03:32;;;;;;;7.37;3.97;;;3.10;99.90;;;;;;5056287;28;20186;-64
2022/04/10 02:06:00;;;;;;;4.07;3.47;;;3.10;99.90;;;;;;5063665;28;20224;-63
2022/04/10 02:08:29;;;;;;;7.60;3.07;;;3.10;99.90;;;;;;5059604;28;20434;-65
2022/04/10 02:10:55;;;;;;;5.20;3.60;;;3.10;99.90;;;;;;5061282;28;20979;-64
2022/04/10 02:13:21;;;;;;;6.47;2.90;;;3.10;99.90;;;;;;5062977;28;20257;-62
2022/04/10 02:15:47;;;;;;;6.87;3.10;;;3.10;99.90;;;;;;5059888;28;20289;-63
2022/04/10 02:18:13;;;;;;;3.97;2.97;;;3.40;99.90;;;;;;5063891;28;20307;-64
2022/04/10 02:20:38;;;;;;;6.50;3.00;;;3.50;99.90;;;;;;5061778;28;20767;-65
2022/04/10 02:23:04;;;;;;;4.03;2.97;;;3.50;99.90;;;;;;5063062;28;20648;-62
2022/04/10 02:25:30;;;;;;;6.93;3.13;;;3.70;99.90;;;;;;5059501;28;20646;-65
2022/04/10 02:27:55;;;;;;;3.17;2.43;;;3.70;99.90;;;;;;5062046;28;20183;-65
2022/04/10 02:30:21;;;;;;;4.70;3.20;;;3.60;99.90;;;;;;5062971;28;20200;-63
2022/04/10 02:32:46;;;;;;;4.90;3.07;;;3.50;99.90;;;;;;5064150;28;20225;-62
2022/04/10 02:35:12;;;;;;;5.40;3.10;;;3.50;99.90;;;;;;5051807;28;20186;-64
2022/04/10 02:37:38;;;;;;;10.53;3.13;;;3.50;99.90;;;;;;5060377;28;20252;-64
2022/04/10 02:40:05;;;;;;;9.00;2.97;;;3.50;99.90;;;;;;5063006;28;20280;-65
2022/04/10 02:42:33;;;;;;;5.93;3.40;;;3.50;99.90;;;;;;5060016;28;20568;-65
2022/04/10 02:44:59;;;;;;;5.60;3.13;;;3.50;99.90;;;;;;5064682;28;20213;-65
2022/04/10 02:47:25;;;;;;;3.73;2.87;;;3.50;99.90;;;;;;5058703;28;20248;-64
2022/04/10 02:49:51;;;;;;;4.80;3.07;;;3.60;99.90;;;;;;5065039;28;20174;-64
2022/04/10 02:52:16;;;;;;;7.33;3.37;;;3.50;99.90;;;;;;5056569;28;20240;-63
2022/04/10 02:54:42;;;;;;;6.13;3.33;;;3.60;99.90;;;;;;5062694;28;20190;-64
2022/04/10 02:57:07;;;;;;;8.83;4.10;;;3.60;99.90;;;;;;5060005;28;20202;-60
2022/04/10 02:59:34;;;;;;;4.90;3.60;;;3.50;99.90;;;;;;5064764;28;20202;-61
2022/04/10 03:01:59;;;;;;;6.17;4.33;;;3.30;99.90;;;;;;5060098;28;20186;-60
2022/04/10 03:04:25;;;;;;;7.93;4.37;;;3.30;99.90;;;;;;5064590;28;20199;-60
2022/04/10 03:06:50;;;;;;;6.07;3.60;;;3.20;99.90;;;;;;5061755;28;20194;-60
2022/04/10 03:09:16;;;;;;;9.83;3.93;;;3.30;99.90;;;;;;5064534;28;20186;-59
2022/04/10 03:11:41;;;;;;;8.90;3.60;;;3.30;99.90;;;;;;5061705;28;20196;-59
2022/04/10 03:14:07;;;;;;;7.80;3.53;;;3.20;99.90;;;;;;5062348;28;20570;-78
2022/04/10 03:16:32;;;;;;;5.73;3.20;;;3.20;99.90;;;;;;5055389;28;20198;-64
2022/04/10 03:18:58;;;;;;;8.73;3.63;;;3.40;99.90;;;;;;5061124;28;20194;-63
2022/04/10 03:21:23;;;;;;;7.70;3.77;;;3.30;99.90;;;;;;5061885;28;20585;-61
2022/04/10 03:23:49;;;;;;;8.17;4.47;;;3.30;99.90;;;;;;5047275;28;20196;-62
2022/04/10 03:26:14;;;;;;;8.00;3.13;;;3.20;99.90;;;;;;5061505;28;20205;-62
2022/04/10 03:28:39;;;;;;;4.20;3.33;;;3.20;99.90;;;;;;5060168;28;20243;-63
2022/04/10 03:31:05;;;;;;;9.27;3.83;;;3.20;99.90;;;;;;5061564;28;20178;-62
2022/04/10 03:33:30;;;;;;;8.30;3.63;;;3.10;99.90;;;;;;5062070;28;20194;-61
2022/04/10 03:35:56;;;;;;;5.47;2.90;;;3.10;99.90;;;;;;5054201;28;20190;-61
2022/04/10 03:38:22;;;;;;;5.70;3.20;;;3.10;99.90;;;;;;5059327;28;20195;-61
2022/04/10 03:40:48;;;;;;;6.47;3.60;;;3.10;99.90;;;;;;5057222;28;20801;-61
2022/04/10 03:43:14;;;;;;;9.30;3.80;;;3.10;99.90;;;;;;5055457;28;20211;-62
2022/04/10 03:45:40;;;;;;;4.27;3.50;;;3.10;99.90;;;;;;5060078;28;20643;-62
2022/04/10 03:48:06;;;;;;;5.13;3.23;;;3.10;99.90;;;;;;5053210;28;20216;-61
2022/04/10 03:50:33;;;;;;;10.43;3.57;;;3.20;99.90;;;;;;5054977;28;20231;-62
2022/04/10 03:53:02;;;;;;;7.50;3.87;;;3.20;99.90;;;;;;5056507;28;20708;-62
2022/04/10 03:55:27;;;;;;;7.13;4.03;;;3.20;99.90;;;;;;5058600;28;20199;-63
2022/04/10 03:57:53;;;;;;;7.67;4.47;;;3.20;99.90;;;;;;5052069;28;20260;-64
2022/04/10 04:00:19;;;;;;;6.73;5.07;;;3.20;99.90;;;;;;5055405;28;20992;-61
2022/04/10 04:02:45;;;;;;;5.93;3.13;;;3.10;99.90;;;;;;5046264;28;20222;-62
2022/04/10 04:05:11;;;;;;;5.13;3.17;;;3.10;99.90;;;;;;5048453;28;20288;-61
2022/04/10 04:07:37;;;;;;;4.93;3.00;;;3.20;99.90;;;;;;5058580;28;20286;-62
2022/04/10 04:10:05;;;;;;;8.10;3.43;;;3.20;99.90;;;;;;5058312;28;20955;-61
2022/04/10 04:12:30;;;;;;;6.53;3.60;;;3.20;99.90;;;;;;5060870;28;20706;-62
2022/04/10 04:14:56;;;;;;;6.60;3.20;;;3.20;99.90;;;;;;5055454;28;20224;-62
2022/04/10 04:17:21;;;;;;;7.93;3.60;;;3.20;99.90;;;;;;5055421;28;20196;-62
2022/04/10 04:19:49;;;;;;;7.50;3.90;;;3.20;99.90;;;;;;5056290;28;20207;-63
2022/04/10 04:22:16;;;;;;;4.57;2.70;;;3.30;99.90;;;;;;5058205;28;20212;-62
2022/04/10 04:24:41;;;;;;;8.87;3.33;;;3.30;99.90;;;;;;5052831;28;20245;-62
2022/04/10 04:27:07;;;;;;;6.17;3.20;;;3.30;99.90;;;;;;5061332;28;20202;-62
2022/04/10 04:29:32;;;;;;;6.60;3.00;;;3.30;99.90;;;;;;5062354;28;20246;-62
2022/04/10 04:31:58;;;;;;;7.90;3.73;;;3.30;99.90;;;;;;5059099;28;20222;-62
2022/04/10 04:34:23;;;;;;;10.00;3.53;;;3.30;99.90;;;;;;5056680;28;20279;-62
2022/04/10 04:36:49;;;;;;;5.57;3.87;;;3.20;99.90;;;;;;5066120;28;20193;-61
2022/04/10 04:39:14;;;;;;;10.57;3.23;;;3.30;99.90;;;;;;5056348;28;20245;-61
2022/04/10 04:41:40;;;;;;;5.97;3.20;;;3.30;99.90;;;;;;5056224;28;20202;-61
2022/04/10 04:44:06;;;;;;;12.80;3.83;;;3.30;99.90;;;;;;5065902;28;20927;-62
2022/04/10 04:46:32;;;;;;;10.27;3.60;;;3.30;99.90;;;;;;5066055;28;20598;-61
2022/04/10 04:48:57;;;;;;;10.40;4.30;;;3.30;99.90;;;;;;5048458;28;20629;-62
2022/04/10 04:51:23;;;;;;;11.03;4.27;;;3.30;99.90;;;;;;5058598;28;20222;-61
2022/04/10 04:53:49;;;;;;;5.37;3.70;;;3.30;99.90;;;;;;5054193;28;20204;-61
2022/04/10 04:56:15;;;;;;;7.53;4.00;;;3.30;99.90;;;;;;5059721;28;20725;-62
2022/04/10 04:58:41;;;;;;;5.87;2.87;;;3.30;99.90;;;;;;5049414;28;20255;-62
2022/04/10 05:01:07;;;;;;;6.80;3.47;;;3.30;99.90;;;;;;5054187;28;20214;-61
2022/04/10 05:03:32;;;;;;;10.50;3.50;;;3.20;99.90;;;;;;5046276;28;20700;-61
2022/04/10 05:05:58;;;;;;;7.20;2.77;;;3.20;99.90;;;;;;5053352;28;20192;-62
2022/04/10 05:08:23;;;;;;;6.60;3.90;;;3.20;99.90;;;;;;5061142;28;20285;-65
2022/04/10 05:10:49;;;;;;;6.53;3.63;;;3.30;99.90;;;;;;5057787;28;20198;-62
2022/04/10 05:13:14;;;;;;;6.03;2.40;;;3.20;99.90;;;;;;5065373;28;20293;-64
2022/04/10 05:15:40;;;;;;;7.20;3.30;;;3.20;99.90;;;;;;5066663;28;20277;-61
2022/04/10 05:18:05;;;;;;;8.10;2.87;;;3.30;99.90;;;;;;5052880;28;20580;-61
2022/04/10 05:20:31;;;;;;;7.90;3.40;;;3.30;99.90;;;;;;5056328;28;20213;-62
2022/04/10 05:22:57;;;;;;;7.53;3.40;;;3.40;99.90;;;;;;5048028;28;20206;-63
2022/04/10 05:25:22;;;;;;;9.17;3.83;;;3.40;99.90;;;;;;5066904;28;20236;-63
2022/04/10 05:27:48;;;;;;;9.40;2.70;;;3.50;99.90;;;;;;5065123;28;20201;-63
2022/04/10 05:30:14;;;;;;;12.67;3.77;;;3.40;99.90;;;;;;5058932;28;20764;-63
2022/04/10 05:32:42;;;;;;;8.80;3.00;;;3.40;99.90;;;;;;5053350;28;20739;-62
2022/04/10 05:35:16;;;;;;;3.87;2.90;;;3.50;99.90;;;;;;5060100;28;20209;-62
2022/04/10 05:37:41;;;;;;;9.40;3.77;;;3.50;99.90;;;;;;5057852;28;20209;-61
2022/04/10 05:40:08;;;;;;;4.37;2.60;;;3.50;99.90;;;;;;5063827;28;20747;-61
2022/04/10 05:42:38;;;;;;;9.70;3.57;;;3.60;99.90;;;;;;5056856;28;20186;-62
2022/04/10 05:45:04;;;;;;;3.17;2.23;;;3.70;99.90;;;;;;5057566;28;20200;-62
2022/04/10 05:47:30;;;;;;;7.80;2.60;;;3.70;99.90;;;;;;5053472;28;20200;-63
2022/04/10 05:49:55;;;;;;;6.97;3.40;;;3.80;99.90;;;;;;5045390;28;20193;-61
2022/04/10 05:52:21;;;;;;;8.00;2.63;;;3.70;99.90;;;;;;5055550;28;20233;-62
2022/04/10 05:54:46;;;;;;;12.13;4.40;;;3.70;99.90;;;;;;5065544;28;20261;-62
2022/04/10 05:57:12;;;;;;;7.97;3.20;;;3.70;99.90;;;;;;5060990;28;20207;-62
2022/04/10 05:59:38;;;;;;;7.83;3.40;;;3.80;99.90;;;;;;5052596;28;20209;-61
2022/04/10 06:02:03;;;;;;;4.73;2.70;;;3.90;99.90;;;;;;5051458;28;20251;-61
2022/04/10 06:04:29;;;;;;;6.57;3.43;;;3.80;99.90;;;;;;5056387;28;20196;-62
2022/04/10 06:06:54;;;;;;;8.57;4.17;;;3.80;99.90;;;;;;5049786;28;20655;-62
2022/04/10 06:09:20;;;;;;;8.33;3.57;;;3.90;99.90;;;;;;5054519;28;20194;-61
2022/04/10 06:11:45;;;;;;;8.90;3.30;;;4.00;99.90;;;;;;5045005;28;20219;-62
2022/04/10 06:14:11;;;;;;;9.27;3.13;;;4.20;99.90;;;;;;5048875;28;20227;-62
2022/04/10 06:16:36;;;;;;;8.43;3.00;;;4.20;99.90;;;;;;5044572;28;20255;-61
2022/04/10 06:19:02;;;;;;;6.73;3.27;;;4.20;99.90;;;;;;5059416;28;20192;-61
2022/04/10 06:21:27;;;;;;;6.67;3.10;;;4.30;99.90;;;;;;5063338;28;20557;-62
2022/04/10 06:23:53;;;;;;;11.53;3.13;;;4.40;99.90;;;;;;5048526;28;20174;-62
2022/04/10 06:26:18;;;;;;;6.37;2.90;;;4.30;99.90;;;;;;5044308;28;20214;-62
2022/04/10 06:28:44;;;;;;;12.87;3.33;;;4.20;99.90;;;;;;5048529;28;20195;-61
2022/04/10 06:31:10;;;;;;;9.30;3.70;;;4.30;99.90;;;;;;5063349;28;20202;-61
2022/04/10 06:33:35;;;;;;;14.60;4.00;;;4.30;99.90;;;;;;5058596;28;20225;-61
2022/04/10 06:36:01;;;;;;;13.57;3.23;;;4.20;99.90;;;;;;5050324;28;20194;-62
2022/04/10 06:38:26;;;;;;;9.17;3.30;;;4.30;99.90;;;;;;5065859;28;20533;-62
2022/04/10 06:40:52;;;;;;;5.73;2.33;;;4.40;99.90;;;;;;5062899;28;20697;-62
2022/04/10 06:43:19;;;;;;;5.80;2.80;;;4.60;99.90;;;;;;5053710;28;20261;-61
2022/04/10 06:45:46;;;;;;;8.97;3.30;;;4.60;99.90;;;;;;5052616;28;20213;-62
2022/04/10 06:48:11;;;;;;;9.87;3.67;;;4.70;99.90;;;;;;5060542;28;20183;-62
2022/04/10 06:50:36;;;;;;;10.90;3.23;;;4.70;99.90;;;;;;5056690;28;20359;-61
2022/04/10 06:53:02;;;;;;;7.83;2.97;;;4.60;99.90;;;;;;5046392;28;20226;-62
2022/04/10 06:55:28;;;;;;;7.37;2.67;;;4.70;99.90;;;;;;5049323;28;20194;-62
2022/04/10 06:57:53;;;;;;;5.73;2.53;;;4.90;99.90;;;;;;5060260;28;20657;-61
2022/04/10 07:00:19;;;;;;;7.80;3.43;;;4.80;99.90;;;;;;5054062;28;20211;-62
2022/04/10 07:02:45;;;;;;;9.97;3.70;;;4.70;99.90;;;;;;5056709;28;20192;-61
2022/04/10 07:05:11;;;;;;;6.63;2.77;;;4.60;99.90;;;;;;5063101;28;20197;-61
2022/04/10 07:07:36;;;;;;;9.00;3.67;;;4.60;99.90;;;;;;5059046;28;20261;-61
2022/04/10 07:10:02;;;;;;;9.60;3.47;;;4.50;99.90;;;;;;5053519;28;20191;-61
2022/04/10 07:12:28;;;;;;;7.73;3.87;;;4.60;99.90;;;;;;5065280;28;20178;-62
2022/04/10 07:14:53;;;;;;;8.70;2.70;;;4.70;99.90;;;;;;5048084;28;21097;-60
2022/04/10 07:17:19;;;;;;;4.83;2.90;;;4.70;99.90;;;;;;5056770;28;20187;-61
2022/04/10 07:19:45;;;;;;;16.47;3.00;;;4.80;99.90;;;;;;5056466;28;20209;-60
2022/04/10 07:24:55;;;;;;;8.53;3.07;;;5.00;99.90;;;;;;5059597;28;20661;-61
2022/04/10 07:27:21;;;;;;;9.47;2.80;;;4.90;99.90;;;;;;5049025;28;20193;-61
2022/04/10 07:29:47;;;;;;;7.17;3.83;;;5.00;99.90;;;;;;5064577;28;20190;-62
2022/04/10 07:32:12;;;;;;;9.13;3.00;;;4.90;99.90;;;;;;5055452;28;20214;-62
2022/04/10 07:34:38;;;;;;;9.33;3.10;;;5.00;99.90;;;;;;5053214;28;20339;-63
2022/04/10 07:37:03;;;;;;;7.93;2.63;;;5.00;99.90;;;;;;5061990;28;20772;-62
2022/04/10 07:39:29;;;;;;;7.33;3.80;;;5.10;99.90;;;;;;5047433;28;20716;-62
2022/04/10 07:41:54;;;;;;;10.60;3.73;;;5.10;99.90;;;;;;5046613;28;20203;-62
2022/04/10 07:44:20;;;;;;;7.27;3.27;;;5.20;99.90;;;;;;5053309;28;20197;-62
2022/04/10 07:49:30;;;;;;;7.97;3.57;;;5.10;99.90;;;;;;5058654;28;20250;-62
2022/04/10 07:51:56;;;;;;;9.40;3.03;;;5.00;99.90;;;;;;5050108;28;20238;-61
2022/04/10 07:54:21;;;;;;;7.33;2.67;;;5.10;99.90;;;;;;5061638;28;20208;-63
2022/04/10 07:56:47;;;;;;;4.73;2.70;;;5.20;99.90;;;;;;5066738;28;20202;-63
2022/04/10 07:59:12;;;;;;;6.97;2.80;;;5.20;99.90;;;;;;5060364;28;20268;-63
2022/04/10 08:01:38;;;;;;;7.40;3.53;;;5.20;99.90;;;;;;5060143;28;20201;-63
2022/04/10 08:04:04;;;;;;;11.63;3.07;;;5.10;99.90;;;;;;5063195;28;20193;-63
2022/04/10 08:06:29;;;;;;;8.20;2.97;;;5.00;99.90;;;;;;5051599;28;20289;-61
2022/04/10 08:08:55;;;;;;;5.23;2.13;;;5.10;99.90;;;;;;5050893;28;20287;-62
2022/04/10 08:11:20;;;;;;;7.07;2.67;;;5.20;99.90;;;;;;5066338;28;20201;-62
2022/04/10 08:13:46;;;;;;;11.87;3.87;;;5.10;99.90;;;;;;5059897;28;20191;-62
2022/04/10 08:16:14;;;;;;;10.53;3.30;;;5.00;99.90;;;;;;5049664;28;20256;-61
2022/04/10 08:18:39;;;;;;;7.03;2.77;;;5.20;99.90;;;;;;5050981;28;20539;-61
2022/04/10 08:21:06;;;;;;;5.77;3.27;;;5.30;99.90;;;;;;5065914;28;20229;-62
2022/04/10 08:23:31;;;;;;;9.33;2.87;;;5.30;99.90;;;;;;5064851;28;20194;-62
2022/04/10 08:25:57;;;;;;;4.73;2.70;;;5.50;99.90;;;;;;5055348;28;20214;-62
2022/04/10 08:28:23;;;;;;;9.30;2.70;;;5.60;99.90;;;;;;5061306;28;20250;-62
2022/04/10 08:30:48;;;;;;;7.80;2.73;;;5.80;99.90;;;;;;5055244;28;20229;-62
2022/04/10 08:33:14;;;;;;;5.50;2.20;;;5.80;99.90;;;;;;5055324;28;20209;-61
2022/04/10 08:35:39;;;;;;;11.97;3.40;;;5.80;99.90;;;;;;5057193;28;20658;-61
2022/04/10 08:38:05;;;;;;;6.03;3.23;;;5.80;99.90;;;;;;5054001;28;20213;-62
2022/04/10 08:40:31;;;;;;;7.23;2.93;;;6.10;99.90;;;;;;5052889;28;20264;-62
2022/04/10 08:43:00;;;;;;;10.20;3.43;;;6.20;99.90;;;;;;5067729;28;20235;-63
2022/04/10 08:45:26;;;;;;;9.10;3.33;;;6.10;99.90;;;;;;5048955;28;20247;-63
2022/04/10 08:47:52;;;;;;;7.63;2.53;;;6.30;99.90;;;;;;5058021;28;20179;-60
2022/04/10 08:50:18;;;;;;;8.33;3.53;;;6.40;99.90;;;;;;5049336;28;20209;-63
2022/04/10 08:52:44;;;;;;;5.47;2.70;;;6.50;99.90;;;;;;5067045;28;20233;-62
2022/04/10 08:55:10;;;;;;;8.03;3.47;;;5.90;99.90;;;;;;5065228;28;20190;-63
2022/04/10 08:57:36;;;;;;;13.97;3.37;;;5.80;99.90;;;;;;5061518;28;20197;-61
2022/04/10 09:00:03;;;;;;;9.57;3.80;;;5.70;99.90;;;;;;5055845;28;20219;-62
2022/04/10 09:02:29;;;;;;;13.23;3.13;;;5.70;99.90;;;;;;5067157;28;20743;-62
2022/04/10 09:04:54;;;;;;;6.93;2.73;;;5.50;99.90;;;;;;5062127;28;20221;-61
2022/04/10 09:07:20;;;;;;;4.57;2.37;;;5.70;99.90;;;;;;5066296;28;20190;-62
2022/04/10 09:09:57;;;;;;;8.27;4.07;;;5.70;99.90;;;;;;5066495;28;20214;-61
2022/04/10 09:12:23;;;;;;;5.57;3.23;;;5.70;99.90;;;;;;5054984;28;20197;-61
2022/04/10 09:14:50;;;;;;;8.70;2.70;;;6.00;99.90;;;;;;5055766;28;20577;-62
2022/04/10 09:17:16;;;;;;;10.63;3.50;;;6.00;99.90;;;;;;5050096;28;20220;-63
2022/04/10 09:19:50;;;;;;;6.03;3.03;;;6.20;99.90;;;;;;5061082;28;20225;-61
2022/04/10 09:22:33;;;;;;;10.63;4.07;;;6.20;99.90;;;;;;5063160;28;20190;-61
2022/04/10 09:25:16;;;;;;;11.27;3.07;;;6.30;99.90;;;;;;5058797;28;20779;-63
2022/04/10 09:27:46;;;;;;;6.87;2.93;;;6.20;99.90;;;;;;5055849;28;20217;-62
2022/04/10 09:30:19;;;;;;;10.27;3.80;;;6.30;99.90;;;;;;5047621;28;20699;-63
2022/04/10 09:32:47;;;;;;;7.70;3.37;;;6.30;99.90;;;;;;5057832;28;20187;-62
2022/04/10 09:35:23;;;;;;;5.83;3.30;;;6.30;99.90;;;;;;5051709;28;20194;-63
2022/04/10 09:37:56;;;;;;;6.40;2.63;;;6.40;99.90;;;;;;5060110;28;20189;-62
2022/04/10 09:40:32;;;;;;;7.93;2.80;;;6.70;99.90;;;;;;5057755;28;20239;-63
2022/04/10 09:43:05;;;;;;;5.73;2.73;;;7.00;99.90;;;;;;5055638;28;20187;-62
2022/04/10 09:45:38;;;;;;;8.73;4.10;;;6.80;99.90;;;;;;5060247;28;20631;-62
2022/04/10 09:48:21;;;;;;;6.13;3.70;;;6.50;99.90;;;;;;5056403;28;20170;-62
2022/04/10 09:50:52;;;;;;;7.57;3.10;;;6.50;99.90;;;;;;5057055;28;20222;-61
2022/04/10 09:53:17;;;;;;;9.67;3.30;;;6.40;99.90;;;;;;5060427;28;20257;-61
2022/04/10 09:55:44;;;;;;;7.50;3.30;;;6.50;99.90;;;;;;5063960;28;20240;-63
2022/04/10 09:58:11;;;;;;;8.60;3.07;;;6.50;99.90;;;;;;5061557;28;20227;-65
2022/04/10 10:00:39;;;;;;;6.07;2.60;;;6.60;99.90;;;;;;5062787;28;20254;-75
2022/04/10 10:03:07;;;;;;;7.23;1.73;;;6.80;99.90;;;;;;5055361;28;20190;-74
2022/04/10 10:05:33;;;;;;;4.53;2.50;;;7.00;99.90;;;;;;5050949;28;20213;-74
2022/04/10 10:08:00;;;;;;;9.90;2.60;;;7.10;99.90;;;;;;5066004;28;20220;-64
2022/04/10 10:10:32;;;;;;;10.30;4.30;;;7.50;99.50;;;;;;5055470;28;20210;-63
2022/04/10 10:13:02;;;;;;;9.73;2.97;;;7.50;98.90;;;;;;5059574;28;20186;-64
2022/04/10 10:15:28;;;;;;;3.40;2.03;;;7.50;98.70;;;;;;5049176;28;20198;-64
2022/04/10 10:17:54;;;;;;;7.03;2.20;;;7.70;98.20;;;;;;5054569;28;20190;-65
2022/04/10 10:20:21;;;;;;;7.63;2.20;;;7.70;97.20;;;;;;5058119;28;20213;-64
2022/04/10 10:22:46;;;;;;;8.73;2.23;;;7.70;97.40;;;;;;5063879;28;20236;-64
2022/04/10 10:25:15;;;;;;;5.80;2.07;;;7.70;98.10;;;;;;5054339;28;20534;-64
2022/04/10 10:28:08;;;;;;;6.63;2.73;;;7.70;98.90;;;;;;5046711;28;20198;-64
2022/04/10 10:30:48;;;;;;;5.30;2.53;;;7.60;99.10;;;;;;5063870;28;20277;-66
2022/04/10 10:33:21;;;;;;;6.83;2.40;;;7.50;98.20;;;;;;5057465;28;20277;-65
2022/04/10 10:35:59;;;;;;;4.63;2.17;;;7.80;97.60;;;;;;5062871;28;20278;-66
2022/04/10 10:38:31;;;;;;;5.47;2.47;;;7.70;98.30;;;;;;5062147;28;20212;-64
2022/04/10 10:41:30;;;;;;;6.57;2.07;;;7.80;97.20;;;;;;5061215;28;20767;-65
2022/04/10 10:43:56;;;;;;;3.87;1.97;;;8.00;96.70;;;;;;5060078;28;20198;-65
2022/04/10 10:46:24;;;;;;;4.97;2.67;;;8.10;96.40;;;;;;5060114;28;20424;-64
2022/04/10 10:49:10;;;;;;;9.33;2.90;;;8.20;95.10;;;;;;5058453;28;20202;-62
2022/04/10 10:51:35;;;;;;;3.33;2.03;;;8.20;95.60;;;;;;5063307;28;20217;-65
2022/04/10 10:54:03;;;;;;;9.87;2.17;;;8.30;95.90;;;;;;5058926;28;20682;-65
2022/04/10 10:56:36;;;;;;;4.57;1.93;;;8.50;95.80;;;;;;5061392;28;20187;-65
2022/04/10 10:59:20;;;;;;;9.10;2.90;;;8.60;95.40;;;;;;5057612;28;20201;-66
2022/04/10 11:02:12;;;;;;;4.93;2.10;;;8.60;95.00;;;;;;5062567;28;21622;-66
2022/04/10 11:04:45;;;;;;;5.57;2.10;;;8.50;95.90;;;;;;5058022;28;20202;-66
2022/04/10 11:07:18;;;;;;;5.47;2.00;;;8.40;94.30;;;;;;5064152;28;20186;-66
2022/04/10 11:09:54;;;;;;;7.37;2.03;;;8.50;94.40;;;;;;5058973;28;20235;-66
2022/04/10 11:12:21;;;;;;;4.70;1.67;;;8.60;94.20;;;;;;5063563;28;20668;-64
2022/04/10 11:14:50;;;;;;;7.87;2.20;;;8.50;94.10;;;;;;5059949;28;20198;-64
2022/04/10 11:17:29;;;;;;;7.53;2.23;;;8.30;94.00;;;;;;5062157;28;20281;-65
2022/04/10 11:20:07;;;;;;;7.20;2.60;;;8.40;93.60;;;;;;5060425;28;20240;-67
2022/04/10 11:22:39;;;;;;;3.57;1.73;;;8.20;94.00;;;;;;5051069;28;20174;-65
2022/04/10 11:25:10;;;;;;;7.83;2.20;;;8.10;97.10;;;;;;5063073;28;20320;-66
2022/04/10 11:27:44;;;;;;;3.40;1.83;;;7.80;96.80;;;;;;5053181;28;20186;-65
2022/04/10 11:30:12;;;;;;;7.33;2.10;;;7.60;97.70;;;;;;5045286;28;20301;-65
2022/04/10 11:33:05;;;;;;;3.13;1.90;;;7.40;99.10;;;;;;5050940;28;20193;-64
2022/04/10 11:35:33;;;;;;;4.80;1.40;;;7.20;99.90;;;;;;5048802;28;20281;-64
2022/04/10 11:38:07;;;;;;;7.23;2.10;;;7.00;99.90;;;;;;5050471;28;20203;-66
2022/04/10 11:40:38;;;;;;;2.80;1.40;;;6.90;99.90;;;;;;5050639;28;20283;-65
2022/04/10 11:43:07;;;;;;;3.97;2.23;;;6.90;99.90;;;;;;5053720;28;20203;-64
2022/04/10 11:45:33;;;;;;;9.63;2.00;;;7.30;99.90;;;;;;5052833;28;20190;-64
2022/04/10 11:47:59;;;;;;;4.93;1.87;;;8.10;99.90;;;;;;5053652;28;20253;-66
2022/04/10 11:50:26;;;;;;;5.23;2.33;;;8.60;99.90;;;;;;5057970;28;20247;-65
2022/04/10 11:53:08;;;;;;;3.90;1.90;;;8.80;99.90;;;;;;5057452;28;20234;-65
2022/04/10 11:55:45;;;;;;;4.57;1.80;;;8.80;97.80;;;;;;5059363;28;20189;-66
2022/04/10 11:58:26;;;;;;;4.00;2.03;;;8.70;97.40;;;;;;5060416;28;21042;-64
2022/04/10 12:00:57;;;;;;;3.90;1.57;;;8.50;95.50;;;;;;5059396;28;20206;-63
2022/04/10 12:03:28;;;;;;;3.93;1.43;;;8.50;95.30;;;;;;5059328;28;20194;-63
2022/04/10 12:05:55;;;;;;;3.20;1.60;;;8.50;95.00;;;;;;5064477;28;20276;-64
2022/04/10 12:08:22;;;;;;;7.70;2.43;;;8.40;95.40;;;;;;5057051;28;20202;-66
2022/04/10 12:10:53;;;;;;;6.53;2.73;;;8.30;94.40;;;;;;5059372;28;20182;-66
2022/04/10 12:13:19;;;;;;;5.77;2.13;;;8.30;93.70;;;;;;5061255;28;20207;-66
2022/04/10 12:15:44;;;;;;;7.53;2.20;;;8.40;94.10;;;;;;5061844;28;20194;-68
2022/04/10 12:18:12;;;;;;;4.90;2.17;;;8.60;94.70;;;;;;5060215;28;20672;-66
2022/04/10 12:20:42;;;;;;;5.27;2.07;;;8.70;95.10;;;;;;5060339;28;20562;-66
2022/04/10 12:23:24;;;;;;;3.73;1.83;;;8.50;93.60;;;;;;5055105;28;20206;-65
2022/04/10 12:25:52;;;;;;;2.83;1.70;;;8.20;93.50;;;;;;5052924;28;20697;-64
2022/04/10 12:28:19;;;;;;;5.93;2.43;;;8.30;93.70;;;;;;5065799;28;20201;-66
2022/04/10 12:30:45;;;;;;;6.10;1.80;;;8.40;94.10;;;;;;5062194;28;20195;-65
2022/04/10 12:33:12;;;;;;;6.30;4.13;;;8.30;93.80;;;;;;5045011;28;20203;-65
2022/04/10 12:35:43;;;;;;;6.87;3.83;;;8.30;93.90;;;;;;5057897;28;20233;-65
2022/04/10 12:38:11;;;;;;;9.60;7.10;;;8.30;94.00;;;;;;5057899;28;20210;-63
2022/04/10 12:40:37;;;;;;;11.90;8.30;;;8.30;93.80;;;;;;5058949;28;20220;-65
2022/04/10 12:43:04;;;;;;;4.60;2.00;;;8.50;94.00;;;;;;5063920;28;20202;-66
2022/04/10 12:45:36;;;;;;;3.70;1.40;;;8.70;93.30;;;;;;5064244;28;20276;-66
2022/04/10 12:48:01;;;;;;;6.43;2.03;;;8.60;91.80;;;;;;5062610;28;20571;-66
2022/04/10 12:50:29;;;;;;;4.63;2.07;;;8.70;91.50;;;;;;5061961;28;20768;-65
2022/04/10 12:52:55;;;;;;;3.67;2.53;;;8.80;91.00;;;;;;5062280;28;20283;-64
2022/04/10 12:55:26;;;;;;;2.40;0.83;;;8.70;91.70;;;;;;5050528;28;20209;-64
2022/04/10 12:57:57;;;;;;;3.57;1.53;;;8.50;91.30;;;;;;5049437;28;20210;-64
2022/04/10 13:00:34;;;;;;;4.13;1.53;;;8.20;91.70;;;;;;5064136;28;20288;-65
2022/04/10 13:03:27;;;;;;;4.37;1.50;;;8.20;92.10;;;;;;5062282;28;20229;-65